createdAt,value
2018-04-12T00:01:35.321Z,14.70
2018-04-12T00:04:02.856Z,14.80
2018-04-12T00:06:29.107Z,14.60
2018-04-12T00:08:55.345Z,14.00
2018-04-12T00:11:21.584Z,14.80
2018-04-12T00:13:47.841Z,15.00
2018-04-12T00:16:15.627Z,15.10
2018-04-12T00:18:41.815Z,15.10
2018-04-12T00:21:08.000Z,14.80
2018-04-12T00:23:34.239Z,14.80
2018-04-12T00:26:01.132Z,14.50
2018-04-12T00:28:27.364Z,15.00
2018-04-12T00:30:54.472Z,14.60
2018-04-12T00:33:20.735Z,14.70
2018-04-12T00:35:46.901Z,14.50
2018-04-12T00:38:13.151Z,14.70
2018-04-12T00:40:40.070Z,14.40
2018-04-12T00:43:06.298Z,14.20
2018-04-12T00:45:33.248Z,14.40
2018-04-12T00:47:59.491Z,14.70
2018-04-12T00:50:25.670Z,14.80
2018-04-12T00:52:52.040Z,14.50
2018-04-12T00:55:18.286Z,14.20
2018-04-12T00:57:44.545Z,14.50
2018-04-12T01:00:12.358Z,14.30
2018-04-12T01:02:39.416Z,14.50
2018-04-12T01:05:05.651Z,14.40
2018-04-12T01:07:32.566Z,14.40
2018-04-12T01:09:59.533Z,14.50
2018-04-12T01:12:25.739Z,14.50
2018-04-12T01:14:53.555Z,14.40
2018-04-12T01:17:19.730Z,14.30
2018-04-12T01:19:46.286Z,14.30
2018-04-12T01:22:12.842Z,14.30
2018-04-12T01:24:39.022Z,14.40
2018-04-12T01:27:05.216Z,14.50
2018-04-12T01:29:31.794Z,14.20
2018-04-12T01:31:59.379Z,14.30
2018-04-12T01:34:26.340Z,14.30
2018-04-12T01:36:52.582Z,14.60
2018-04-12T01:39:19.158Z,14.30
2018-04-12T01:41:46.102Z,14.20
2018-04-12T01:44:13.109Z,14.20
2018-04-12T01:46:39.297Z,14.40
2018-04-12T01:49:06.199Z,14.10
2018-04-12T01:51:33.192Z,14.00
2018-04-12T01:53:59.766Z,14.10
2018-04-12T01:56:26.039Z,14.10
2018-04-12T01:58:52.796Z,14.40
2018-04-12T02:01:19.728Z,14.20
2018-04-12T02:03:45.913Z,13.90
2018-04-12T02:06:12.501Z,14.20
2018-04-12T02:08:39.450Z,14.00
2018-04-12T02:11:06.431Z,14.00
2018-04-12T02:13:32.655Z,14.00
2018-04-12T02:15:58.886Z,14.10
2018-04-12T02:18:25.103Z,13.90
2018-04-12T02:20:51.714Z,14.00
2018-04-12T02:36:17.999Z,13.90
2018-04-12T02:38:44.228Z,13.80
2018-04-12T02:41:10.463Z,13.70
2018-04-12T02:43:36.644Z,13.70
2018-04-12T02:46:03.565Z,13.70
2018-04-12T02:48:29.734Z,13.70
2018-04-12T02:50:55.942Z,13.80
2018-04-12T02:53:22.861Z,13.80
2018-04-12T02:55:49.086Z,13.90
2018-04-12T02:58:15.311Z,13.90
2018-04-12T03:00:41.540Z,13.90
2018-04-12T03:03:07.696Z,13.80
2018-04-12T03:05:34.671Z,13.80
2018-04-12T03:08:02.439Z,13.70
2018-04-12T03:10:28.646Z,13.70
2018-04-12T03:12:55.582Z,13.60
2018-04-12T03:15:22.515Z,13.60
2018-04-12T03:17:48.700Z,13.60
2018-04-12T03:20:14.901Z,13.50
2018-04-12T03:22:42.289Z,13.50
2018-04-12T03:25:08.490Z,13.30
2018-04-12T03:27:34.643Z,13.60
2018-04-12T03:30:00.883Z,13.40
2018-04-12T03:32:27.751Z,13.40
2018-04-12T03:34:53.989Z,13.50
2018-04-12T03:37:20.195Z,13.50
2018-04-12T03:39:46.423Z,13.40
2018-04-12T03:42:12.716Z,13.60
2018-04-12T03:44:39.591Z,13.70
2018-04-12T03:47:05.808Z,13.70
2018-04-12T03:49:32.049Z,13.80
2018-04-12T03:51:58.281Z,13.80
2018-04-12T03:54:24.493Z,13.80
2018-04-12T03:56:50.657Z,13.90
2018-04-12T03:59:16.870Z,13.90
2018-04-12T04:01:43.155Z,13.90
2018-04-12T04:04:09.285Z,13.80
2018-04-12T04:06:35.512Z,13.90
2018-04-12T04:11:30.579Z,14.30
2018-04-12T04:13:56.793Z,14.00
2018-04-12T04:16:35.354Z,14.10
2018-04-12T04:19:15.278Z,14.20
2018-04-12T04:21:41.476Z,14.30
2018-04-12T04:24:08.527Z,14.30
2018-04-12T04:26:35.365Z,14.40
2018-04-12T04:29:01.555Z,14.40
2018-04-12T04:31:29.261Z,14.30
2018-04-12T04:33:56.626Z,14.40
2018-04-12T04:36:23.251Z,14.60
2018-04-12T04:38:49.784Z,14.40
2018-04-12T04:41:16.009Z,15.00
2018-04-12T04:43:43.821Z,14.70
2018-04-12T04:46:10.005Z,14.60
2018-04-12T04:48:36.241Z,14.60
2018-04-12T04:51:02.470Z,14.20
2018-04-12T04:53:28.643Z,14.00
2018-04-12T04:55:55.580Z,14.40
2018-04-12T04:58:21.827Z,14.30
2018-04-12T05:00:48.825Z,14.50
2018-04-12T05:03:15.832Z,14.50
2018-04-12T05:05:42.788Z,14.50
2018-04-12T05:08:10.439Z,14.60
2018-04-12T05:10:37.447Z,14.70
2018-04-12T05:13:03.693Z,14.80
2018-04-12T05:15:31.436Z,14.80
2018-04-12T05:17:57.618Z,14.50
2018-04-12T05:20:24.339Z,14.30
2018-04-12T05:22:50.606Z,14.70
2018-04-12T05:25:16.872Z,14.80
2018-04-12T05:27:43.453Z,14.70
2018-04-12T05:30:10.457Z,14.80
2018-04-12T05:32:37.048Z,15.40
2018-04-12T05:35:03.250Z,14.70
2018-04-12T05:37:29.476Z,15.40
2018-04-12T05:39:56.009Z,14.90
2018-04-12T05:42:22.562Z,14.90
2018-04-12T05:44:49.561Z,15.00
2018-04-12T05:47:16.097Z,14.90
2018-04-12T05:49:42.300Z,15.00
2018-04-12T05:52:08.560Z,15.20
2018-04-12T05:54:34.791Z,15.20
2018-04-12T05:57:01.008Z,15.10
2018-04-12T05:59:27.233Z,15.50
2018-04-12T06:01:53.461Z,15.20
2018-04-12T06:04:19.692Z,15.00
2018-04-12T06:06:47.036Z,15.70
2018-04-12T06:09:13.233Z,15.40
2018-04-12T06:11:39.824Z,16.50
2018-04-12T06:14:07.111Z,16.80
2018-04-12T06:16:34.038Z,16.60
2018-04-12T06:19:00.362Z,18.00
2018-04-12T06:21:27.944Z,17.70
2018-04-12T06:23:55.636Z,18.10
2018-04-12T06:26:22.248Z,17.80
2018-04-12T06:28:48.477Z,17.70
2018-04-12T06:31:14.730Z,18.00
2018-04-12T06:33:41.047Z,17.40
2018-04-12T06:38:39.104Z,17.30
2018-04-12T06:41:05.489Z,17.40
2018-04-12T06:43:32.683Z,17.70
2018-04-12T06:46:01.425Z,17.70
2018-04-12T06:48:29.218Z,17.40
2018-04-12T06:50:55.481Z,17.60
2018-04-12T06:53:21.740Z,17.70
2018-04-12T06:55:48.672Z,17.50
2018-04-12T06:58:15.734Z,17.40
2018-04-12T07:00:42.865Z,17.50
2018-04-12T07:03:09.887Z,17.50
2018-04-12T07:05:36.283Z,17.70
2018-04-12T07:08:02.799Z,17.50
2018-04-12T07:10:29.742Z,17.40
2018-04-12T07:12:57.373Z,17.50
2018-04-12T07:15:23.974Z,17.30
2018-04-12T07:17:51.121Z,17.60
2018-04-12T07:20:17.590Z,17.80
2018-04-12T07:22:43.784Z,18.70
2018-04-12T07:25:10.547Z,19.00
2018-04-12T07:27:36.783Z,19.80
2018-04-12T07:30:03.003Z,20.00
2018-04-12T07:32:29.539Z,20.30
2018-04-12T07:34:55.755Z,20.40
2018-04-12T07:37:21.979Z,20.80
2018-04-12T07:39:48.599Z,21.10
2018-04-12T07:42:14.797Z,22.20
2018-04-12T07:44:41.042Z,22.40
2018-04-12T07:47:08.061Z,23.10
2018-04-12T07:49:34.297Z,23.70
2018-04-12T07:52:00.609Z,24.20
2018-04-12T07:54:26.857Z,24.40
2018-04-12T07:56:53.047Z,24.40
2018-04-12T07:59:19.274Z,24.60
2018-04-12T08:01:45.530Z,24.80
2018-04-12T08:04:12.130Z,25.10
2018-04-12T08:06:38.449Z,25.40
2018-04-12T08:09:05.396Z,25.60
2018-04-12T08:11:32.341Z,25.70
2018-04-12T08:13:58.939Z,25.90
2018-04-12T08:16:25.170Z,25.60
2018-04-12T08:18:51.369Z,25.80
2018-04-12T08:21:17.637Z,26.50
2018-04-12T08:23:43.912Z,26.60
2018-04-12T08:26:10.117Z,26.70
2018-04-12T08:28:37.058Z,26.80
2018-04-12T08:31:04.030Z,26.40
2018-04-12T08:33:30.297Z,26.30
2018-04-12T08:35:56.460Z,26.30
2018-04-12T08:38:24.249Z,25.10
2018-04-12T08:40:50.449Z,24.90
2018-04-12T08:43:17.049Z,25.10
2018-04-12T08:45:43.218Z,24.80
2018-04-12T08:48:10.156Z,25.10
2018-04-12T08:50:36.744Z,25.50
2018-04-12T08:53:03.060Z,25.20
2018-04-12T08:55:30.366Z,25.20
2018-04-12T08:57:56.605Z,25.40
2018-04-12T09:00:23.586Z,25.50
2018-04-12T09:02:49.773Z,25.10
2018-04-12T09:05:17.273Z,24.80
2018-04-12T09:07:43.491Z,25.50
2018-04-12T09:10:10.509Z,25.50
2018-04-12T09:12:37.078Z,25.20
2018-04-12T09:15:03.322Z,25.50
2018-04-12T09:17:29.572Z,24.80
2018-04-12T09:19:57.041Z,25.20
2018-04-12T09:22:23.304Z,24.80
2018-04-12T09:24:51.515Z,25.70
2018-04-12T09:27:17.789Z,25.90
2018-04-12T09:29:44.127Z,26.20
2018-04-12T09:32:10.692Z,25.90
2018-04-12T09:34:37.623Z,26.30
2018-04-12T09:37:03.859Z,27.10
2018-04-12T09:39:31.632Z,26.90
2018-04-12T09:41:59.019Z,27.60
2018-04-12T09:44:25.463Z,28.10
2018-04-12T09:46:52.046Z,28.30
2018-04-12T09:49:19.102Z,27.80
2018-04-12T09:51:46.175Z,27.10
2018-04-12T09:54:13.128Z,26.80
2018-04-12T09:56:39.893Z,26.60
2018-04-12T09:59:06.880Z,26.20
2018-04-12T10:01:39.819Z,25.80
2018-04-12T10:04:12.061Z,25.20
2018-04-12T10:06:39.383Z,25.10
2018-04-12T10:09:11.854Z,25.30
2018-04-12T10:11:38.830Z,24.80
2018-04-12T10:14:06.757Z,24.80
2018-04-12T10:16:32.958Z,24.60
2018-04-12T10:18:59.314Z,24.30
2018-04-12T10:21:25.557Z,24.00
2018-04-12T10:23:52.389Z,24.40
2018-04-12T10:26:19.564Z,24.90
2018-04-12T10:28:45.782Z,24.60
2018-04-12T10:31:13.912Z,23.70
2018-04-12T10:33:41.442Z,23.00
2018-04-12T10:36:08.445Z,22.80
2018-04-12T10:38:34.978Z,22.60
2018-04-12T10:41:01.170Z,22.40
2018-04-12T10:43:30.075Z,22.00
2018-04-12T10:45:57.233Z,22.20
2018-04-12T10:48:23.432Z,22.20
2018-04-12T10:50:50.328Z,22.30
2018-04-12T10:53:25.100Z,22.40
2018-04-12T10:58:22.141Z,23.10
2018-04-12T11:00:48.408Z,23.50
2018-04-12T11:03:16.776Z,23.70
2018-04-12T11:05:44.626Z,23.90
2018-04-12T11:08:10.950Z,24.00
2018-04-12T11:10:37.171Z,24.30
2018-04-12T11:13:04.357Z,24.70
2018-04-12T11:15:30.973Z,25.10
2018-04-12T11:17:57.676Z,24.90
2018-04-12T11:20:25.101Z,24.60
2018-04-12T11:22:52.229Z,24.80
2018-04-12T11:25:19.193Z,24.90
2018-04-12T11:27:46.953Z,24.90
2018-04-12T11:30:14.224Z,24.80
2018-04-12T11:32:42.600Z,24.50
2018-04-12T11:35:10.561Z,24.20
2018-04-12T11:37:37.660Z,24.10
2018-04-12T11:40:04.661Z,24.00
2018-04-12T11:42:30.821Z,24.30
2018-04-12T11:44:57.089Z,24.50
2018-04-12T11:47:23.259Z,24.40
2018-04-12T11:59:35.374Z,24.80
2018-04-12T12:02:01.705Z,26.00
2018-04-12T12:04:28.912Z,26.30
2018-04-12T12:06:55.147Z,26.00
2018-04-12T12:09:21.409Z,24.70
2018-04-12T12:11:47.605Z,24.70
2018-04-12T12:14:14.711Z,23.70
2018-04-12T12:16:41.304Z,22.80
2018-04-12T12:19:07.613Z,22.70
2018-04-12T12:21:34.687Z,23.00
2018-04-12T12:24:01.704Z,22.70
2018-04-12T12:26:27.923Z,23.60
2018-04-12T12:28:54.959Z,24.80
2018-04-12T12:31:22.041Z,26.00
2018-04-12T12:33:51.425Z,27.20
2018-04-12T12:36:19.007Z,27.00
2018-04-12T12:38:45.253Z,26.30
2018-04-12T12:41:13.167Z,26.10
2018-04-12T12:43:39.333Z,25.70
2018-04-12T12:46:05.637Z,25.60
2018-04-12T12:48:34.801Z,24.70
2018-04-12T12:51:03.460Z,23.90
2018-04-12T12:53:30.944Z,23.40
2018-04-12T12:55:57.264Z,23.30
2018-04-12T12:58:24.358Z,22.90
2018-04-12T13:00:51.301Z,22.60
2018-04-12T13:03:19.155Z,22.50
2018-04-12T13:05:46.176Z,22.20
2018-04-12T13:08:13.498Z,22.20
2018-04-12T13:10:39.693Z,22.10
2018-04-12T13:13:06.903Z,22.90
2018-04-12T13:15:33.344Z,23.10
2018-04-12T13:18:01.542Z,23.00
2018-04-12T13:20:27.776Z,23.10
2018-04-12T13:22:55.971Z,23.30
2018-04-12T13:25:22.241Z,23.40
2018-04-12T13:30:19.416Z,25.10
2018-04-12T13:32:45.699Z,25.20
2018-04-12T13:35:12.673Z,25.40
2018-04-12T13:37:39.816Z,25.30
2018-04-12T13:40:06.526Z,24.50
2018-04-12T13:42:34.031Z,24.40
2018-04-12T13:45:00.277Z,24.70
2018-04-12T13:47:27.261Z,23.90
2018-04-12T13:49:55.095Z,24.00
2018-04-12T13:52:21.714Z,23.80
2018-04-12T13:54:48.259Z,23.40
2018-04-12T13:57:15.503Z,23.10
2018-04-12T13:59:43.065Z,22.90
2018-04-12T14:02:10.097Z,22.70
2018-04-12T14:04:37.212Z,22.40
2018-04-12T14:07:04.225Z,22.70
2018-04-12T14:09:31.248Z,22.80
2018-04-12T14:11:58.520Z,22.80
2018-04-12T14:14:26.377Z,22.90
2018-04-12T14:16:52.921Z,22.90
2018-04-12T14:19:19.832Z,22.90
2018-04-12T14:21:46.531Z,22.50
2018-04-12T14:24:13.149Z,22.40
2018-04-12T14:26:40.239Z,22.30
2018-04-12T14:29:10.448Z,22.20
2018-04-12T14:31:38.366Z,22.10
2018-04-12T14:34:05.711Z,22.10
2018-04-12T14:36:38.514Z,22.20
2018-04-12T14:39:05.546Z,22.30
2018-04-12T14:41:33.486Z,22.30
2018-04-12T14:44:01.001Z,22.20
2018-04-12T14:46:28.181Z,22.30
2018-04-12T14:48:56.441Z,22.40
2018-04-12T14:51:23.372Z,22.10
2018-04-12T14:53:49.567Z,22.20
2018-04-12T14:56:17.238Z,22.30
2018-04-12T14:58:43.532Z,22.20
2018-04-12T15:01:12.399Z,22.20
2018-04-12T15:03:40.727Z,22.30
2018-04-12T15:06:06.980Z,22.20
2018-04-12T15:08:33.632Z,22.10
2018-04-12T15:11:02.402Z,22.00
2018-04-12T15:13:28.613Z,22.10
2018-04-12T15:15:54.856Z,22.10
2018-04-12T15:18:22.018Z,22.00
2018-04-12T15:20:48.213Z,21.90
2018-04-12T15:23:16.047Z,21.90
2018-04-12T15:25:43.512Z,21.70
2018-04-12T15:28:10.544Z,21.60
2018-04-12T15:30:36.852Z,21.50
2018-04-12T15:33:04.663Z,21.50
2018-04-12T15:35:32.614Z,21.50
2018-04-12T15:37:58.819Z,21.50
2018-04-12T15:40:26.035Z,21.40
2018-04-12T15:45:22.739Z,21.40
2018-04-12T15:47:48.999Z,21.30
2018-04-12T15:50:16.082Z,21.40
2018-04-12T15:52:43.399Z,21.40
2018-04-12T15:55:09.636Z,21.40
2018-04-12T15:57:36.313Z,21.40
2018-04-12T16:00:03.497Z,21.30
2018-04-12T16:02:30.975Z,21.30
2018-04-12T16:04:59.410Z,21.30
2018-04-12T16:07:26.056Z,21.30
2018-04-12T16:09:53.585Z,21.10
2018-04-12T16:12:21.297Z,21.10
2018-04-12T16:14:47.642Z,21.00
2018-04-12T16:17:14.762Z,21.10
2018-04-12T16:19:41.553Z,21.10
2018-04-12T16:22:07.854Z,21.20
2018-04-12T16:24:34.187Z,21.20
2018-04-12T16:27:00.538Z,21.30
2018-04-12T16:29:27.330Z,21.20
2018-04-12T16:31:53.553Z,21.00
2018-04-12T16:34:19.905Z,21.00
2018-04-12T16:49:51.215Z,20.50
2018-04-12T16:52:17.430Z,20.50
2018-04-12T16:54:44.070Z,20.60
2018-04-12T16:57:11.014Z,20.60
2018-04-12T16:59:38.257Z,20.60
2018-04-12T17:02:06.199Z,20.40
2018-04-12T17:04:33.875Z,20.40
2018-04-12T17:07:00.913Z,20.30
2018-04-12T17:09:27.143Z,20.30
2018-04-12T17:11:53.397Z,20.20
2018-04-12T17:14:20.385Z,20.10
2018-04-12T17:16:46.756Z,20.00
2018-04-12T17:19:13.096Z,20.00
2018-04-12T17:21:39.360Z,19.80
2018-04-12T17:26:59.661Z,19.70
2018-04-12T17:29:26.948Z,19.70
2018-04-12T17:31:54.034Z,19.70
2018-04-12T17:34:20.267Z,19.60
2018-04-12T17:36:46.562Z,19.60
2018-04-12T17:39:14.367Z,19.50
2018-04-12T17:41:41.688Z,19.50
2018-04-12T17:44:08.832Z,19.40
2018-04-12T17:46:35.090Z,19.40
2018-04-12T17:49:01.462Z,19.20
2018-04-12T17:51:28.528Z,19.20
2018-04-12T17:53:54.857Z,19.20
2018-04-12T17:56:21.987Z,19.10
2018-04-12T17:58:50.925Z,19.10
2018-04-12T18:01:17.176Z,19.00
2018-04-12T18:03:43.707Z,19.00
2018-04-12T18:06:11.832Z,18.90
2018-04-12T18:08:39.905Z,18.90
2018-04-12T18:11:06.159Z,18.80
2018-04-12T18:13:34.828Z,18.80
2018-04-12T18:16:01.681Z,18.80
2018-04-12T18:18:28.620Z,18.60
2018-04-12T18:20:54.918Z,18.60
2018-04-12T18:23:23.741Z,18.50
2018-04-12T18:25:50.032Z,18.50
2018-04-12T18:28:18.353Z,18.50
2018-04-12T18:40:30.982Z,18.40
2018-04-12T18:42:58.056Z,18.40
2018-04-12T18:45:26.682Z,18.50
2018-04-12T18:47:54.823Z,18.40
2018-04-12T18:50:22.779Z,18.40
2018-04-12T19:02:35.722Z,18.40
2018-04-12T19:05:01.984Z,18.40
2018-04-12T19:07:28.226Z,18.40
2018-04-12T19:09:56.005Z,18.40
2018-04-12T19:12:22.301Z,18.40
2018-04-12T19:14:49.106Z,18.20
2018-04-12T19:17:15.452Z,18.10
2018-04-12T19:19:41.716Z,18.10
2018-04-12T19:22:10.430Z,18.00
2018-04-12T19:24:38.452Z,18.00
2018-04-12T19:27:05.678Z,17.90
2018-04-12T19:29:34.891Z,17.80
2018-04-12T19:32:01.798Z,17.80
2018-04-12T19:34:28.898Z,17.80
2018-04-12T19:36:56.201Z,17.80
2018-04-12T19:39:22.457Z,17.70
2018-04-12T19:41:50.520Z,17.80
2018-04-12T19:44:17.928Z,17.80
2018-04-12T19:46:44.236Z,17.80
2018-04-12T19:49:11.940Z,17.80
2018-04-12T19:51:38.929Z,17.60
2018-04-12T19:54:05.233Z,17.60
2018-04-12T19:56:31.488Z,18.70
2018-04-12T20:08:42.717Z,17.30
2018-04-12T20:11:09.033Z,17.30
2018-04-12T20:13:50.949Z,17.20
2018-04-12T20:16:18.545Z,17.20
2018-04-12T20:18:46.217Z,17.30
2018-04-12T20:21:12.471Z,17.30
2018-04-12T20:23:39.492Z,17.30
2018-04-12T20:26:05.764Z,17.30
2018-04-12T20:38:23.686Z,16.90
2018-04-12T20:40:50.935Z,16.80
2018-04-12T20:43:17.149Z,16.90
2018-04-12T20:45:44.121Z,16.90
2018-04-12T20:48:10.446Z,16.90
2018-04-12T20:50:36.674Z,16.90
2018-04-12T20:53:04.281Z,16.80
2018-04-12T20:55:30.506Z,16.80
2018-04-12T20:57:57.770Z,16.90
2018-04-12T21:00:24.260Z,16.90
2018-04-12T21:02:51.163Z,16.90
2018-04-12T21:05:18.303Z,16.90
2018-04-12T21:07:44.591Z,16.90
2018-04-12T21:10:10.838Z,16.80
2018-04-12T21:12:37.071Z,16.70
2018-04-12T21:15:04.871Z,16.50
2018-04-12T21:17:31.870Z,16.30
2018-04-12T21:19:58.736Z,16.20
2018-04-12T21:22:24.988Z,16.20
2018-04-12T21:24:52.798Z,16.20
2018-04-12T21:27:19.394Z,16.20
2018-04-12T21:29:45.639Z,16.20
2018-04-12T21:32:12.541Z,16.30
2018-04-12T21:34:39.806Z,16.30
2018-04-12T21:37:06.083Z,16.30
2018-04-12T21:39:32.366Z,16.30
2018-04-12T21:41:58.600Z,16.30
2018-04-12T21:44:26.097Z,16.30
2018-04-12T21:46:52.314Z,16.30
2018-04-12T21:49:18.524Z,16.10
2018-04-12T21:51:45.486Z,16.00
2018-04-12T21:54:13.424Z,15.80
2018-04-12T21:56:39.637Z,15.80
2018-04-12T21:59:05.848Z,15.80
2018-04-12T22:01:33.250Z,15.90
2018-04-12T22:04:00.116Z,15.90
2018-04-12T22:06:27.239Z,16.00
2018-04-12T22:08:54.179Z,16.00
2018-04-12T22:11:20.395Z,16.00
2018-04-12T22:13:47.518Z,15.90
2018-04-12T22:16:14.796Z,15.90
2018-04-12T22:18:40.989Z,16.00
2018-04-12T22:21:07.223Z,16.00
2018-04-12T22:33:23.448Z,16.00
2018-04-12T22:35:52.328Z,15.80
2018-04-12T22:38:19.556Z,15.80
2018-04-12T22:40:45.763Z,15.80
2018-04-12T22:43:11.986Z,15.70
2018-04-12T22:45:38.213Z,15.60
2018-04-12T22:48:05.220Z,15.60
2018-04-12T22:50:31.413Z,15.60
2018-04-12T22:52:57.608Z,15.60
2018-04-12T22:55:23.833Z,15.60
2018-04-12T22:57:50.936Z,15.60
2018-04-12T23:00:17.276Z,15.60
2018-04-12T23:02:45.685Z,15.60
2018-04-12T23:05:12.691Z,15.60
2018-04-12T23:07:39.262Z,15.60
2018-04-12T23:10:06.217Z,15.60
2018-04-12T23:12:33.566Z,15.60
2018-04-12T23:15:00.649Z,15.70
2018-04-12T23:17:26.859Z,15.70
2018-04-12T23:19:53.125Z,15.90
2018-04-12T23:22:19.348Z,15.90
2018-04-12T23:24:45.591Z,16.00
2018-04-12T23:27:11.776Z,16.00
2018-04-12T23:29:38.005Z,16.00
2018-04-12T23:32:04.901Z,16.10
2018-04-12T23:34:31.078Z,16.00
2018-04-12T23:36:58.230Z,16.10
2018-04-12T23:39:24.489Z,16.10
2018-04-12T23:41:51.734Z,16.10
2018-04-12T23:44:17.931Z,16.10
2018-04-12T23:46:44.868Z,16.10
2018-04-12T23:49:11.818Z,16.10
2018-04-12T23:51:39.638Z,16.10
2018-04-12T23:54:05.853Z,16.10
2018-04-12T23:56:32.042Z,16.10
2018-04-12T23:58:59.364Z,16.20
